sensor_id;sensor_type;location;lat;lon;timestamp;P1;durP1;ratioP1;P2;durP2;ratioP2
34060;SDS011;20336;-33.424;-70.638;2023-07-02T00:01:49;28.80;;;14.10;;
34060;SDS011;20336;-33.424;-70.638;2023-07-02T00:04:16;30.57;;;13.93;;
34060;SDS011;20336;-33.424;-70.638;2023-07-02T00:06:47;36.37;;;17.70;;
34060;SDS011;20336;-33.424;-70.638;2023-07-02T00:09:15;35.47;;;16.00;;
34060;SDS011;20336;-33.424;-70.638;2023-07-02T00:11:43;35.27;;;18.37;;
34060;SDS011;20336;-33.424;-70.638;2023-07-02T00:14:13;33.87;;;14.93;;
34060;SDS011;20336;-33.424;-70.638;2023-07-02T00:16:44;37.17;;;14.80;;
34060;SDS011;20336;-33.424;-70.638;2023-07-02T00:19:13;28.87;;;13.93;;
34060;SDS011;20336;-33.424;-70.638;2023-07-02T00:21:40;28.33;;;14.90;;
34060;SDS011;20336;-33.424;-70.638;2023-07-02T00:24:08;28.13;;;15.00;;
34060;SDS011;20336;-33.424;-70.638;2023-07-02T00:26:35;32.00;;;15.80;;
34060;SDS011;20336;-33.424;-70.638;2023-07-02T00:29:03;36.90;;;13.90;;
34060;SDS011;20336;-33.424;-70.638;2023-07-02T00:31:31;35.73;;;13.67;;
34060;SDS011;20336;-33.424;-70.638;2023-07-02T00:33:58;31.23;;;15.87;;
34060;SDS011;20336;-33.424;-70.638;2023-07-02T00:36:29;31.80;;;16.40;;
34060;SDS011;20336;-33.424;-70.638;2023-07-02T00:38:56;63.10;;;35.53;;
34060;SDS011;20336;-33.424;-70.638;2023-07-02T00:41:23;46.77;;;27.73;;
34060;SDS011;20336;-33.424;-70.638;2023-07-02T00:43:50;37.40;;;21.07;;
34060;SDS011;20336;-33.424;-70.638;2023-07-02T00:46:20;31.97;;;15.60;;
34060;SDS011;20336;-33.424;-70.638;2023-07-02T00:48:48;34.23;;;16.53;;
34060;SDS011;20336;-33.424;-70.638;2023-07-02T00:51:15;28.87;;;15.20;;
34060;SDS011;20336;-33.424;-70.638;2023-07-02T00:53:45;27.70;;;14.80;;
34060;SDS011;20336;-33.424;-70.638;2023-07-02T00:56:12;38.53;;;19.13;;
34060;SDS011;20336;-33.424;-70.638;2023-07-02T00:58:41;46.50;;;22.33;;
34060;SDS011;20336;-33.424;-70.638;2023-07-02T01:01:16;50.13;;;25.13;;
34060;SDS011;20336;-33.424;-70.638;2023-07-02T01:06:43;43.43;;;20.43;;
34060;SDS011;20336;-33.424;-70.638;2023-07-02T01:09:10;30.50;;;14.47;;
34060;SDS011;20336;-33.424;-70.638;2023-07-02T01:11:41;32.90;;;15.07;;
34060;SDS011;20336;-33.424;-70.638;2023-07-02T01:14:13;30.50;;;14.70;;
34060;SDS011;20336;-33.424;-70.638;2023-07-02T01:16:44;32.40;;;19.33;;
34060;SDS011;20336;-33.424;-70.638;2023-07-02T01:19:12;27.13;;;15.30;;
34060;SDS011;20336;-33.424;-70.638;2023-07-02T01:21:40;37.73;;;19.53;;
34060;SDS011;20336;-33.424;-70.638;2023-07-02T01:24:07;31.53;;;16.17;;
34060;SDS011;20336;-33.424;-70.638;2023-07-02T01:26:34;37.87;;;21.50;;
34060;SDS011;20336;-33.424;-70.638;2023-07-02T01:31:41;29.33;;;15.53;;
34060;SDS011;20336;-33.424;-70.638;2023-07-02T01:34:08;33.00;;;16.37;;
34060;SDS011;20336;-33.424;-70.638;2023-07-02T01:36:35;27.50;;;14.53;;
34060;SDS011;20336;-33.424;-70.638;2023-07-02T01:39:02;24.47;;;14.13;;
34060;SDS011;20336;-33.424;-70.638;2023-07-02T01:41:29;25.00;;;14.70;;
34060;SDS011;20336;-33.424;-70.638;2023-07-02T01:43:56;27.33;;;14.00;;
34060;SDS011;20336;-33.424;-70.638;2023-07-02T01:46:23;28.13;;;13.97;;
34060;SDS011;20336;-33.424;-70.638;2023-07-02T01:48:50;26.00;;;14.00;;
34060;SDS011;20336;-33.424;-70.638;2023-07-02T01:51:16;27.17;;;15.57;;
34060;SDS011;20336;-33.424;-70.638;2023-07-02T01:53:44;25.70;;;13.50;;
34060;SDS011;20336;-33.424;-70.638;2023-07-02T01:56:10;31.10;;;13.57;;
34060;SDS011;20336;-33.424;-70.638;2023-07-02T01:58:37;29.50;;;17.87;;
34060;SDS011;20336;-33.424;-70.638;2023-07-02T02:01:04;30.60;;;15.17;;
34060;SDS011;20336;-33.424;-70.638;2023-07-02T02:03:31;36.40;;;19.83;;
34060;SDS011;20336;-33.424;-70.638;2023-07-02T02:05:58;24.47;;;12.73;;
34060;SDS011;20336;-33.424;-70.638;2023-07-02T02:08:25;28.33;;;12.20;;
34060;SDS011;20336;-33.424;-70.638;2023-07-02T02:10:51;23.23;;;11.27;;
34060;SDS011;20336;-33.424;-70.638;2023-07-02T02:13:18;26.07;;;12.80;;
34060;SDS011;20336;-33.424;-70.638;2023-07-02T02:15:45;24.53;;;11.93;;
34060;SDS011;20336;-33.424;-70.638;2023-07-02T02:18:12;25.83;;;11.87;;
34060;SDS011;20336;-33.424;-70.638;2023-07-02T02:20:39;22.27;;;11.30;;
34060;SDS011;20336;-33.424;-70.638;2023-07-02T02:23:06;23.87;;;11.37;;
34060;SDS011;20336;-33.424;-70.638;2023-07-02T02:25:33;23.03;;;11.37;;
34060;SDS011;20336;-33.424;-70.638;2023-07-02T02:28:00;22.30;;;11.20;;
34060;SDS011;20336;-33.424;-70.638;2023-07-02T02:30:26;30.50;;;12.03;;
34060;SDS011;20336;-33.424;-70.638;2023-07-02T02:32:53;20.90;;;10.57;;
34060;SDS011;20336;-33.424;-70.638;2023-07-02T02:35:20;19.67;;;10.90;;
34060;SDS011;20336;-33.424;-70.638;2023-07-02T02:37:48;20.73;;;10.97;;
34060;SDS011;20336;-33.424;-70.638;2023-07-02T02:40:14;32.07;;;11.80;;
34060;SDS011;20336;-33.424;-70.638;2023-07-02T02:42:41;25.03;;;11.97;;
34060;SDS011;20336;-33.424;-70.638;2023-07-02T02:45:08;28.07;;;12.37;;
34060;SDS011;20336;-33.424;-70.638;2023-07-02T02:47:35;28.03;;;12.53;;
34060;SDS011;20336;-33.424;-70.638;2023-07-02T02:50:02;28.67;;;14.40;;
34060;SDS011;20336;-33.424;-70.638;2023-07-02T02:52:29;30.87;;;16.40;;
34060;SDS011;20336;-33.424;-70.638;2023-07-02T02:54:56;48.97;;;21.63;;
34060;SDS011;20336;-33.424;-70.638;2023-07-02T02:57:23;32.43;;;17.33;;
34060;SDS011;20336;-33.424;-70.638;2023-07-02T02:59:50;36.70;;;19.00;;
34060;SDS011;20336;-33.424;-70.638;2023-07-02T03:02:16;36.43;;;18.17;;
34060;SDS011;20336;-33.424;-70.638;2023-07-02T03:04:43;38.03;;;19.73;;
34060;SDS011;20336;-33.424;-70.638;2023-07-02T03:07:10;40.40;;;18.63;;
34060;SDS011;20336;-33.424;-70.638;2023-07-02T03:09:37;40.27;;;18.40;;
34060;SDS011;20336;-33.424;-70.638;2023-07-02T03:12:04;43.47;;;19.43;;
34060;SDS011;20336;-33.424;-70.638;2023-07-02T03:14:31;39.07;;;18.30;;
34060;SDS011;20336;-33.424;-70.638;2023-07-02T03:16:58;35.37;;;17.90;;
34060;SDS011;20336;-33.424;-70.638;2023-07-02T03:19:25;38.00;;;17.37;;
34060;SDS011;20336;-33.424;-70.638;2023-07-02T03:21:52;38.57;;;18.57;;
34060;SDS011;20336;-33.424;-70.638;2023-07-02T03:24:19;41.87;;;19.63;;
34060;SDS011;20336;-33.424;-70.638;2023-07-02T03:26:46;46.00;;;22.87;;
34060;SDS011;20336;-33.424;-70.638;2023-07-02T03:29:13;40.07;;;19.83;;
34060;SDS011;20336;-33.424;-70.638;2023-07-02T03:31:40;41.03;;;20.07;;
34060;SDS011;20336;-33.424;-70.638;2023-07-02T03:34:07;41.20;;;21.50;;
34060;SDS011;20336;-33.424;-70.638;2023-07-02T03:36:38;34.60;;;18.33;;
34060;SDS011;20336;-33.424;-70.638;2023-07-02T03:39:04;54.43;;;27.90;;
34060;SDS011;20336;-33.424;-70.638;2023-07-02T03:41:31;41.73;;;20.73;;
34060;SDS011;20336;-33.424;-70.638;2023-07-02T03:43:58;52.57;;;26.90;;
34060;SDS011;20336;-33.424;-70.638;2023-07-02T03:46:25;40.10;;;20.27;;
34060;SDS011;20336;-33.424;-70.638;2023-07-02T03:48:52;40.50;;;20.67;;
34060;SDS011;20336;-33.424;-70.638;2023-07-02T03:51:19;35.23;;;19.30;;
34060;SDS011;20336;-33.424;-70.638;2023-07-02T03:53:46;52.13;;;24.13;;
34060;SDS011;20336;-33.424;-70.638;2023-07-02T03:56:12;41.50;;;20.03;;
34060;SDS011;20336;-33.424;-70.638;2023-07-02T03:58:40;38.93;;;20.50;;
34060;SDS011;20336;-33.424;-70.638;2023-07-02T04:01:06;65.40;;;31.33;;
34060;SDS011;20336;-33.424;-70.638;2023-07-02T04:03:33;48.43;;;21.97;;
34060;SDS011;20336;-33.424;-70.638;2023-07-02T04:06:00;43.73;;;20.43;;
34060;SDS011;20336;-33.424;-70.638;2023-07-02T04:08:27;34.80;;;18.70;;
34060;SDS011;20336;-33.424;-70.638;2023-07-02T04:10:54;35.27;;;18.93;;
34060;SDS011;20336;-33.424;-70.638;2023-07-02T04:13:21;41.97;;;19.47;;
34060;SDS011;20336;-33.424;-70.638;2023-07-02T04:15:48;41.23;;;20.40;;
34060;SDS011;20336;-33.424;-70.638;2023-07-02T04:18:15;43.63;;;19.63;;
34060;SDS011;20336;-33.424;-70.638;2023-07-02T04:20:41;36.77;;;18.73;;
34060;SDS011;20336;-33.424;-70.638;2023-07-02T04:23:08;39.07;;;18.37;;
34060;SDS011;20336;-33.424;-70.638;2023-07-02T04:25:35;41.47;;;17.73;;
34060;SDS011;20336;-33.424;-70.638;2023-07-02T04:28:02;40.73;;;19.10;;
34060;SDS011;20336;-33.424;-70.638;2023-07-02T04:30:28;42.00;;;19.33;;
34060;SDS011;20336;-33.424;-70.638;2023-07-02T04:32:55;45.17;;;21.77;;
34060;SDS011;20336;-33.424;-70.638;2023-07-02T04:35:22;40.10;;;21.57;;
34060;SDS011;20336;-33.424;-70.638;2023-07-02T04:37:49;39.57;;;21.20;;
34060;SDS011;20336;-33.424;-70.638;2023-07-02T04:40:16;49.20;;;24.33;;
34060;SDS011;20336;-33.424;-70.638;2023-07-02T04:42:43;42.90;;;20.50;;
34060;SDS011;20336;-33.424;-70.638;2023-07-02T04:45:12;44.97;;;21.20;;
34060;SDS011;20336;-33.424;-70.638;2023-07-02T04:47:44;38.00;;;19.33;;
34060;SDS011;20336;-33.424;-70.638;2023-07-02T04:50:11;41.03;;;19.17;;
34060;SDS011;20336;-33.424;-70.638;2023-07-02T04:52:38;45.67;;;20.17;;
34060;SDS011;20336;-33.424;-70.638;2023-07-02T04:55:05;58.80;;;28.87;;
34060;SDS011;20336;-33.424;-70.638;2023-07-02T04:57:32;44.73;;;22.53;;
34060;SDS011;20336;-33.424;-70.638;2023-07-02T04:59:59;50.73;;;22.57;;
34060;SDS011;20336;-33.424;-70.638;2023-07-02T05:02:26;50.53;;;26.73;;
34060;SDS011;20336;-33.424;-70.638;2023-07-02T05:04:53;44.33;;;22.70;;
34060;SDS011;20336;-33.424;-70.638;2023-07-02T05:07:19;47.93;;;25.13;;
34060;SDS011;20336;-33.424;-70.638;2023-07-02T05:09:46;37.23;;;20.83;;
34060;SDS011;20336;-33.424;-70.638;2023-07-02T05:12:18;40.37;;;21.23;;
34060;SDS011;20336;-33.424;-70.638;2023-07-02T05:14:45;39.10;;;20.03;;
34060;SDS011;20336;-33.424;-70.638;2023-07-02T05:17:12;40.33;;;21.00;;
34060;SDS011;20336;-33.424;-70.638;2023-07-02T05:19:41;43.70;;;22.67;;
34060;SDS011;20336;-33.424;-70.638;2023-07-02T05:22:08;40.50;;;20.17;;
34060;SDS011;20336;-33.424;-70.638;2023-07-02T05:24:36;39.90;;;20.33;;
34060;SDS011;20336;-33.424;-70.638;2023-07-02T05:27:03;40.37;;;19.60;;
34060;SDS011;20336;-33.424;-70.638;2023-07-02T05:29:30;34.90;;;19.07;;
34060;SDS011;20336;-33.424;-70.638;2023-07-02T05:31:57;37.83;;;18.70;;
34060;SDS011;20336;-33.424;-70.638;2023-07-02T05:34:24;30.13;;;17.60;;
34060;SDS011;20336;-33.424;-70.638;2023-07-02T05:36:51;33.53;;;16.27;;
34060;SDS011;20336;-33.424;-70.638;2023-07-02T05:39:17;33.80;;;18.70;;
34060;SDS011;20336;-33.424;-70.638;2023-07-02T05:41:44;42.07;;;22.03;;
34060;SDS011;20336;-33.424;-70.638;2023-07-02T05:44:11;27.27;;;16.30;;
34060;SDS011;20336;-33.424;-70.638;2023-07-02T05:46:38;32.43;;;17.17;;
34060;SDS011;20336;-33.424;-70.638;2023-07-02T05:49:05;36.93;;;19.23;;
34060;SDS011;20336;-33.424;-70.638;2023-07-02T05:51:31;32.13;;;17.37;;
34060;SDS011;20336;-33.424;-70.638;2023-07-02T05:53:58;36.37;;;17.73;;
34060;SDS011;20336;-33.424;-70.638;2023-07-02T05:56:25;36.70;;;17.57;;
34060;SDS011;20336;-33.424;-70.638;2023-07-02T05:58:52;35.30;;;17.40;;
34060;SDS011;20336;-33.424;-70.638;2023-07-02T06:01:18;40.70;;;20.43;;
34060;SDS011;20336;-33.424;-70.638;2023-07-02T06:03:45;38.67;;;18.53;;
34060;SDS011;20336;-33.424;-70.638;2023-07-02T06:06:12;39.13;;;17.93;;
34060;SDS011;20336;-33.424;-70.638;2023-07-02T06:08:39;34.37;;;17.83;;
34060;SDS011;20336;-33.424;-70.638;2023-07-02T06:11:06;39.10;;;18.73;;
34060;SDS011;20336;-33.424;-70.638;2023-07-02T06:13:32;30.73;;;17.80;;
34060;SDS011;20336;-33.424;-70.638;2023-07-02T06:15:59;36.50;;;19.07;;
34060;SDS011;20336;-33.424;-70.638;2023-07-02T06:18:26;32.60;;;17.90;;
34060;SDS011;20336;-33.424;-70.638;2023-07-02T06:20:53;32.33;;;18.27;;
34060;SDS011;20336;-33.424;-70.638;2023-07-02T06:23:20;39.83;;;19.57;;
34060;SDS011;20336;-33.424;-70.638;2023-07-02T06:25:46;36.70;;;18.50;;
34060;SDS011;20336;-33.424;-70.638;2023-07-02T06:28:13;33.53;;;17.87;;
34060;SDS011;20336;-33.424;-70.638;2023-07-02T06:30:40;37.07;;;19.17;;
34060;SDS011;20336;-33.424;-70.638;2023-07-02T06:33:07;45.77;;;18.80;;
34060;SDS011;20336;-33.424;-70.638;2023-07-02T06:35:34;36.77;;;19.37;;
34060;SDS011;20336;-33.424;-70.638;2023-07-02T06:38:00;31.20;;;18.30;;
34060;SDS011;20336;-33.424;-70.638;2023-07-02T06:40:27;37.73;;;18.13;;
34060;SDS011;20336;-33.424;-70.638;2023-07-02T06:42:54;35.30;;;18.23;;
34060;SDS011;20336;-33.424;-70.638;2023-07-02T06:45:21;38.67;;;18.80;;
34060;SDS011;20336;-33.424;-70.638;2023-07-02T06:47:49;40.47;;;20.27;;
34060;SDS011;20336;-33.424;-70.638;2023-07-02T06:50:16;37.20;;;18.77;;
34060;SDS011;20336;-33.424;-70.638;2023-07-02T06:52:43;38.03;;;19.30;;
34060;SDS011;20336;-33.424;-70.638;2023-07-02T06:55:09;37.17;;;19.03;;
34060;SDS011;20336;-33.424;-70.638;2023-07-02T06:57:41;38.67;;;21.17;;
34060;SDS011;20336;-33.424;-70.638;2023-07-02T07:00:10;42.57;;;22.00;;
34060;SDS011;20336;-33.424;-70.638;2023-07-02T07:02:37;38.10;;;20.80;;
34060;SDS011;20336;-33.424;-70.638;2023-07-02T07:05:03;51.33;;;23.23;;
34060;SDS011;20336;-33.424;-70.638;2023-07-02T07:07:30;43.83;;;23.83;;
34060;SDS011;20336;-33.424;-70.638;2023-07-02T07:09:57;38.23;;;22.70;;
34060;SDS011;20336;-33.424;-70.638;2023-07-02T07:12:24;41.83;;;21.93;;
34060;SDS011;20336;-33.424;-70.638;2023-07-02T07:14:51;40.67;;;25.13;;
34060;SDS011;20336;-33.424;-70.638;2023-07-02T07:17:17;49.53;;;24.97;;
34060;SDS011;20336;-33.424;-70.638;2023-07-02T07:19:44;48.83;;;25.67;;
34060;SDS011;20336;-33.424;-70.638;2023-07-02T07:22:11;48.00;;;25.70;;
34060;SDS011;20336;-33.424;-70.638;2023-07-02T07:24:38;44.10;;;23.53;;
34060;SDS011;20336;-33.424;-70.638;2023-07-02T07:27:05;46.43;;;24.10;;
34060;SDS011;20336;-33.424;-70.638;2023-07-02T07:29:32;42.03;;;24.70;;
34060;SDS011;20336;-33.424;-70.638;2023-07-02T07:31:59;49.63;;;26.40;;
34060;SDS011;20336;-33.424;-70.638;2023-07-02T07:34:25;47.57;;;25.03;;
34060;SDS011;20336;-33.424;-70.638;2023-07-02T07:36:53;49.47;;;24.47;;
34060;SDS011;20336;-33.424;-70.638;2023-07-02T07:39:20;46.03;;;25.17;;
34060;SDS011;20336;-33.424;-70.638;2023-07-02T07:41:47;50.40;;;25.77;;
34060;SDS011;20336;-33.424;-70.638;2023-07-02T07:44:14;41.43;;;24.47;;
34060;SDS011;20336;-33.424;-70.638;2023-07-02T07:46:40;49.23;;;25.53;;
34060;SDS011;20336;-33.424;-70.638;2023-07-02T07:49:07;49.13;;;26.83;;
34060;SDS011;20336;-33.424;-70.638;2023-07-02T07:51:34;48.17;;;26.13;;
34060;SDS011;20336;-33.424;-70.638;2023-07-02T07:54:02;46.87;;;23.17;;
34060;SDS011;20336;-33.424;-70.638;2023-07-02T07:56:28;52.47;;;27.03;;
34060;SDS011;20336;-33.424;-70.638;2023-07-02T07:58:55;54.33;;;30.63;;
34060;SDS011;20336;-33.424;-70.638;2023-07-02T08:01:22;60.80;;;32.33;;
34060;SDS011;20336;-33.424;-70.638;2023-07-02T08:03:49;78.40;;;39.40;;
34060;SDS011;20336;-33.424;-70.638;2023-07-02T08:06:16;54.63;;;31.17;;
34060;SDS011;20336;-33.424;-70.638;2023-07-02T08:08:45;56.03;;;29.80;;
34060;SDS011;20336;-33.424;-70.638;2023-07-02T08:11:12;57.73;;;31.50;;
34060;SDS011;20336;-33.424;-70.638;2023-07-02T08:13:38;51.13;;;29.80;;
34060;SDS011;20336;-33.424;-70.638;2023-07-02T08:16:05;56.87;;;30.70;;
34060;SDS011;20336;-33.424;-70.638;2023-07-02T08:18:34;55.23;;;29.27;;
34060;SDS011;20336;-33.424;-70.638;2023-07-02T08:21:01;51.37;;;29.80;;
34060;SDS011;20336;-33.424;-70.638;2023-07-02T08:23:31;57.77;;;30.90;;
34060;SDS011;20336;-33.424;-70.638;2023-07-02T08:25:58;65.53;;;33.43;;
34060;SDS011;20336;-33.424;-70.638;2023-07-02T08:28:25;55.57;;;32.17;;
34060;SDS011;20336;-33.424;-70.638;2023-07-02T08:30:52;61.57;;;32.73;;
34060;SDS011;20336;-33.424;-70.638;2023-07-02T08:33:19;53.53;;;30.87;;
34060;SDS011;20336;-33.424;-70.638;2023-07-02T08:35:46;66.17;;;34.97;;
34060;SDS011;20336;-33.424;-70.638;2023-07-02T08:38:13;60.73;;;32.47;;
34060;SDS011;20336;-33.424;-70.638;2023-07-02T08:40:40;61.67;;;32.53;;
34060;SDS011;20336;-33.424;-70.638;2023-07-02T08:43:07;60.63;;;31.77;;
34060;SDS011;20336;-33.424;-70.638;2023-07-02T08:45:34;56.00;;;30.40;;
34060;SDS011;20336;-33.424;-70.638;2023-07-02T08:48:01;57.90;;;31.73;;
34060;SDS011;20336;-33.424;-70.638;2023-07-02T08:50:27;55.63;;;31.17;;
34060;SDS011;20336;-33.424;-70.638;2023-07-02T08:52:54;58.53;;;31.10;;
34060;SDS011;20336;-33.424;-70.638;2023-07-02T08:55:21;60.67;;;31.47;;
34060;SDS011;20336;-33.424;-70.638;2023-07-02T08:57:57;59.63;;;33.10;;
34060;SDS011;20336;-33.424;-70.638;2023-07-02T09:00:27;58.40;;;32.50;;
34060;SDS011;20336;-33.424;-70.638;2023-07-02T09:02:56;65.70;;;34.30;;
34060;SDS011;20336;-33.424;-70.638;2023-07-02T09:05:23;55.87;;;31.63;;
34060;SDS011;20336;-33.424;-70.638;2023-07-02T09:07:50;64.57;;;35.23;;
34060;SDS011;20336;-33.424;-70.638;2023-07-02T09:10:30;56.63;;;30.57;;
34060;SDS011;20336;-33.424;-70.638;2023-07-02T09:13:04;58.93;;;30.87;;
34060;SDS011;20336;-33.424;-70.638;2023-07-02T09:15:37;64.40;;;31.70;;
34060;SDS011;20336;-33.424;-70.638;2023-07-02T09:18:17;54.50;;;30.27;;
34060;SDS011;20336;-33.424;-70.638;2023-07-02T09:20:44;62.40;;;31.77;;
34060;SDS011;20336;-33.424;-70.638;2023-07-02T09:23:11;59.93;;;31.47;;
34060;SDS011;20336;-33.424;-70.638;2023-07-02T09:25:39;59.13;;;31.70;;
34060;SDS011;20336;-33.424;-70.638;2023-07-02T09:28:19;56.83;;;31.13;;
34060;SDS011;20336;-33.424;-70.638;2023-07-02T09:30:56;66.97;;;33.73;;
34060;SDS011;20336;-33.424;-70.638;2023-07-02T09:33:27;55.20;;;32.07;;
34060;SDS011;20336;-33.424;-70.638;2023-07-02T09:35:54;64.00;;;33.13;;
34060;SDS011;20336;-33.424;-70.638;2023-07-02T09:38:21;59.23;;;30.73;;
34060;SDS011;20336;-33.424;-70.638;2023-07-02T09:40:51;58.47;;;31.60;;
34060;SDS011;20336;-33.424;-70.638;2023-07-02T09:43:19;63.83;;;33.07;;
34060;SDS011;20336;-33.424;-70.638;2023-07-02T09:45:46;54.37;;;30.53;;
34060;SDS011;20336;-33.424;-70.638;2023-07-02T09:48:14;59.33;;;31.07;;
34060;SDS011;20336;-33.424;-70.638;2023-07-02T09:50:44;55.27;;;31.37;;
34060;SDS011;20336;-33.424;-70.638;2023-07-02T09:53:11;57.20;;;29.43;;
34060;SDS011;20336;-33.424;-70.638;2023-07-02T09:55:39;60.97;;;30.03;;
34060;SDS011;20336;-33.424;-70.638;2023-07-02T09:58:06;60.50;;;31.83;;
34060;SDS011;20336;-33.424;-70.638;2023-07-02T10:00:33;60.83;;;31.13;;
34060;SDS011;20336;-33.424;-70.638;2023-07-02T10:03:00;54.17;;;29.70;;
34060;SDS011;20336;-33.424;-70.638;2023-07-02T10:05:31;55.10;;;31.20;;
34060;SDS011;20336;-33.424;-70.638;2023-07-02T10:07:59;79.70;;;39.70;;
34060;SDS011;20336;-33.424;-70.638;2023-07-02T10:10:29;70.83;;;35.17;;
34060;SDS011;20336;-33.424;-70.638;2023-07-02T10:12:57;61.67;;;33.63;;
34060;SDS011;20336;-33.424;-70.638;2023-07-02T10:15:24;63.57;;;33.10;;
34060;SDS011;20336;-33.424;-70.638;2023-07-02T10:17:58;62.23;;;32.67;;
34060;SDS011;20336;-33.424;-70.638;2023-07-02T10:20:38;141.53;;;42.17;;
34060;SDS011;20336;-33.424;-70.638;2023-07-02T10:23:06;84.90;;;39.77;;
34060;SDS011;20336;-33.424;-70.638;2023-07-02T10:25:34;78.60;;;39.00;;
34060;SDS011;20336;-33.424;-70.638;2023-07-02T10:28:23;61.87;;;35.40;;
34060;SDS011;20336;-33.424;-70.638;2023-07-02T10:30:52;87.43;;;39.87;;
34060;SDS011;20336;-33.424;-70.638;2023-07-02T10:33:19;72.23;;;39.10;;
34060;SDS011;20336;-33.424;-70.638;2023-07-02T10:35:48;83.07;;;38.73;;
34060;SDS011;20336;-33.424;-70.638;2023-07-02T10:38:17;76.97;;;39.67;;
34060;SDS011;20336;-33.424;-70.638;2023-07-02T10:40:44;87.10;;;41.03;;
34060;SDS011;20336;-33.424;-70.638;2023-07-02T10:43:11;133.83;;;45.30;;
34060;SDS011;20336;-33.424;-70.638;2023-07-02T10:45:38;122.27;;;46.73;;
34060;SDS011;20336;-33.424;-70.638;2023-07-02T10:48:08;97.10;;;41.53;;
34060;SDS011;20336;-33.424;-70.638;2023-07-02T10:50:36;207.80;;;53.20;;
34060;SDS011;20336;-33.424;-70.638;2023-07-02T10:53:03;103.60;;;43.43;;
34060;SDS011;20336;-33.424;-70.638;2023-07-02T10:55:30;88.83;;;41.07;;
34060;SDS011;20336;-33.424;-70.638;2023-07-02T10:58:04;93.07;;;39.63;;
34060;SDS011;20336;-33.424;-70.638;2023-07-02T11:00:32;102.97;;;43.10;;
34060;SDS011;20336;-33.424;-70.638;2023-07-02T11:02:59;101.87;;;45.63;;
34060;SDS011;20336;-33.424;-70.638;2023-07-02T11:05:26;89.90;;;42.70;;
34060;SDS011;20336;-33.424;-70.638;2023-07-02T11:07:52;90.87;;;42.43;;
34060;SDS011;20336;-33.424;-70.638;2023-07-02T11:10:22;86.53;;;39.60;;
34060;SDS011;20336;-33.424;-70.638;2023-07-02T11:12:50;76.83;;;38.03;;
34060;SDS011;20336;-33.424;-70.638;2023-07-02T11:15:17;89.47;;;41.33;;
34060;SDS011;20336;-33.424;-70.638;2023-07-02T11:17:44;114.60;;;48.30;;
34060;SDS011;20336;-33.424;-70.638;2023-07-02T11:20:12;83.83;;;40.73;;
34060;SDS011;20336;-33.424;-70.638;2023-07-02T11:22:41;76.80;;;37.67;;
34060;SDS011;20336;-33.424;-70.638;2023-07-02T11:25:15;66.43;;;37.57;;
34060;SDS011;20336;-33.424;-70.638;2023-07-02T11:27:44;90.83;;;42.07;;
34060;SDS011;20336;-33.424;-70.638;2023-07-02T11:30:11;88.87;;;40.20;;
34060;SDS011;20336;-33.424;-70.638;2023-07-02T11:32:51;80.20;;;38.93;;
34060;SDS011;20336;-33.424;-70.638;2023-07-02T11:35:20;78.80;;;38.73;;
34060;SDS011;20336;-33.424;-70.638;2023-07-02T11:37:48;80.87;;;37.80;;
34060;SDS011;20336;-33.424;-70.638;2023-07-02T11:40:18;71.63;;;37.50;;
34060;SDS011;20336;-33.424;-70.638;2023-07-02T11:42:45;107.27;;;45.23;;
34060;SDS011;20336;-33.424;-70.638;2023-07-02T11:45:11;75.20;;;37.30;;
34060;SDS011;20336;-33.424;-70.638;2023-07-02T11:47:38;76.13;;;37.87;;
34060;SDS011;20336;-33.424;-70.638;2023-07-02T11:50:05;66.37;;;35.53;;
34060;SDS011;20336;-33.424;-70.638;2023-07-02T11:52:33;74.57;;;36.23;;
34060;SDS011;20336;-33.424;-70.638;2023-07-02T11:54:59;76.47;;;39.03;;
34060;SDS011;20336;-33.424;-70.638;2023-07-02T11:57:26;70.07;;;36.10;;
34060;SDS011;20336;-33.424;-70.638;2023-07-02T11:59:53;107.30;;;46.70;;
34060;SDS011;20336;-33.424;-70.638;2023-07-02T12:02:20;76.70;;;36.80;;
34060;SDS011;20336;-33.424;-70.638;2023-07-02T12:04:47;63.83;;;33.73;;
34060;SDS011;20336;-33.424;-70.638;2023-07-02T12:07:13;65.20;;;34.57;;
34060;SDS011;20336;-33.424;-70.638;2023-07-02T12:09:40;67.67;;;34.83;;
34060;SDS011;20336;-33.424;-70.638;2023-07-02T12:12:07;64.27;;;33.43;;
34060;SDS011;20336;-33.424;-70.638;2023-07-02T12:14:34;69.40;;;34.13;;
34060;SDS011;20336;-33.424;-70.638;2023-07-02T12:17:02;75.50;;;36.77;;
34060;SDS011;20336;-33.424;-70.638;2023-07-02T12:19:29;72.07;;;35.93;;
34060;SDS011;20336;-33.424;-70.638;2023-07-02T12:21:56;72.37;;;36.57;;
34060;SDS011;20336;-33.424;-70.638;2023-07-02T12:24:23;73.43;;;39.07;;
34060;SDS011;20336;-33.424;-70.638;2023-07-02T12:26:50;76.67;;;38.60;;
34060;SDS011;20336;-33.424;-70.638;2023-07-02T12:29:17;69.10;;;37.53;;
34060;SDS011;20336;-33.424;-70.638;2023-07-02T12:31:44;76.50;;;37.90;;
34060;SDS011;20336;-33.424;-70.638;2023-07-02T12:34:10;75.77;;;37.20;;
34060;SDS011;20336;-33.424;-70.638;2023-07-02T12:36:37;81.10;;;39.33;;
34060;SDS011;20336;-33.424;-70.638;2023-07-02T12:39:04;68.00;;;34.53;;
34060;SDS011;20336;-33.424;-70.638;2023-07-02T12:41:31;68.20;;;35.03;;
34060;SDS011;20336;-33.424;-70.638;2023-07-02T12:43:58;61.33;;;32.53;;
34060;SDS011;20336;-33.424;-70.638;2023-07-02T12:46:25;72.87;;;36.97;;
34060;SDS011;20336;-33.424;-70.638;2023-07-02T12:48:52;79.10;;;39.53;;
34060;SDS011;20336;-33.424;-70.638;2023-07-02T12:51:19;67.10;;;35.60;;
34060;SDS011;20336;-33.424;-70.638;2023-07-02T12:53:49;75.80;;;38.27;;
34060;SDS011;20336;-33.424;-70.638;2023-07-02T12:56:16;85.33;;;39.87;;
34060;SDS011;20336;-33.424;-70.638;2023-07-02T12:58:43;68.10;;;35.37;;
34060;SDS011;20336;-33.424;-70.638;2023-07-02T13:01:10;65.53;;;34.87;;
34060;SDS011;20336;-33.424;-70.638;2023-07-02T13:03:37;66.40;;;34.67;;
34060;SDS011;20336;-33.424;-70.638;2023-07-02T13:06:03;69.13;;;34.60;;
34060;SDS011;20336;-33.424;-70.638;2023-07-02T13:08:30;74.70;;;37.43;;
34060;SDS011;20336;-33.424;-70.638;2023-07-02T13:10:57;81.30;;;39.10;;
34060;SDS011;20336;-33.424;-70.638;2023-07-02T13:13:24;79.63;;;38.97;;
34060;SDS011;20336;-33.424;-70.638;2023-07-02T13:15:51;87.90;;;41.13;;
34060;SDS011;20336;-33.424;-70.638;2023-07-02T13:18:17;91.67;;;40.47;;
34060;SDS011;20336;-33.424;-70.638;2023-07-02T13:20:44;107.53;;;45.30;;
34060;SDS011;20336;-33.424;-70.638;2023-07-02T13:23:11;101.67;;;41.00;;
34060;SDS011;20336;-33.424;-70.638;2023-07-02T13:25:38;87.93;;;40.63;;
34060;SDS011;20336;-33.424;-70.638;2023-07-02T13:28:05;73.03;;;35.57;;
34060;SDS011;20336;-33.424;-70.638;2023-07-02T13:30:31;125.90;;;43.50;;
34060;SDS011;20336;-33.424;-70.638;2023-07-02T13:32:58;89.40;;;39.30;;
34060;SDS011;20336;-33.424;-70.638;2023-07-02T13:35:25;79.80;;;36.83;;
34060;SDS011;20336;-33.424;-70.638;2023-07-02T13:37:52;76.30;;;39.80;;
34060;SDS011;20336;-33.424;-70.638;2023-07-02T13:40:19;87.30;;;41.00;;
34060;SDS011;20336;-33.424;-70.638;2023-07-02T13:42:45;117.77;;;46.27;;
34060;SDS011;20336;-33.424;-70.638;2023-07-02T13:45:12;96.13;;;42.73;;
34060;SDS011;20336;-33.424;-70.638;2023-07-02T13:47:39;119.53;;;43.90;;
34060;SDS011;20336;-33.424;-70.638;2023-07-02T13:50:06;120.80;;;45.10;;
34060;SDS011;20336;-33.424;-70.638;2023-07-02T13:52:33;120.57;;;46.50;;